sensor_id;sensor_type;location;lat;lon;timestamp;pressure;altitude;pressure_sealevel;temperature;humidity
4410;BME280;2218;51.408;7.208;2023-05-19T00:01:45;100715.78;;;20.16;39.99
4410;BME280;2218;51.408;7.208;2023-05-19T00:04:14;100720.22;;;20.15;40.04
4410;BME280;2218;51.408;7.208;2023-05-19T00:06:42;100715.91;;;20.14;40.05
4410;BME280;2218;51.408;7.208;2023-05-19T00:09:11;100708.88;;;20.13;40.10
4410;BME280;2218;51.408;7.208;2023-05-19T00:11:39;100714.09;;;20.14;39.88
4410;BME280;2218;51.408;7.208;2023-05-19T00:14:09;100708.88;;;20.13;40.00
4410;BME280;2218;51.408;7.208;2023-05-19T00:16:37;100708.88;;;20.13;39.89
4410;BME280;2218;51.408;7.208;2023-05-19T00:19:07;100714.16;;;20.13;39.98
4410;BME280;2218;51.408;7.208;2023-05-19T00:21:35;100703.63;;;20.13;40.12
4410;BME280;2218;51.408;7.208;2023-05-19T00:24:04;100708.88;;;20.13;39.83
4410;BME280;2218;51.408;7.208;2023-05-19T00:26:31;100712.47;;;20.12;40.22
4410;BME280;2218;51.408;7.208;2023-05-19T00:29:03;100716.06;;;20.11;40.11
4410;BME280;2218;51.408;7.208;2023-05-19T00:31:32;100713.41;;;20.11;40.15
4410;BME280;2218;51.408;7.208;2023-05-19T00:34:00;100713.41;;;20.11;40.18
4410;BME280;2218;51.408;7.208;2023-05-19T00:36:27;100712.56;;;20.10;40.05
4410;BME280;2218;51.408;7.208;2023-05-19T00:38:55;100714.38;;;20.10;39.98
4410;BME280;2218;51.408;7.208;2023-05-19T00:41:22;100712.66;;;20.09;39.56
4410;BME280;2218;51.408;7.208;2023-05-19T00:43:50;100705.66;;;20.08;40.08
4410;BME280;2218;51.408;7.208;2023-05-19T00:46:17;100713.56;;;20.08;40.15
4410;BME280;2218;51.408;7.208;2023-05-19T00:48:45;100710.94;;;20.08;40.09
4410;BME280;2218;51.408;7.208;2023-05-19T00:51:13;100709.16;;;20.08;40.20
4410;BME280;2218;51.408;7.208;2023-05-19T00:53:43;100714.53;;;20.07;40.18
4410;BME280;2218;51.408;7.208;2023-05-19T00:56:14;100713.56;;;20.08;40.14
4410;BME280;2218;51.408;7.208;2023-05-19T00:58:42;100713.69;;;20.06;40.10
4410;BME280;2218;51.408;7.208;2023-05-19T01:01:09;100708.41;;;20.06;40.16
4410;BME280;2218;51.408;7.208;2023-05-19T01:03:39;100712.81;;;20.06;40.08
4410;BME280;2218;51.408;7.208;2023-05-19T01:06:08;100709.34;;;20.05;40.16
4410;BME280;2218;51.408;7.208;2023-05-19T01:08:37;100711.13;;;20.05;39.98
4410;BME280;2218;51.408;7.208;2023-05-19T01:11:06;100704.13;;;20.04;40.44
4410;BME280;2218;51.408;7.208;2023-05-19T01:13:34;100708.56;;;20.03;40.11
4410;BME280;2218;51.408;7.208;2023-05-19T01:16:09;100704.13;;;20.04;40.17
4410;BME280;2218;51.408;7.208;2023-05-19T01:18:46;100715.63;;;20.03;40.18
4410;BME280;2218;51.408;7.208;2023-05-19T01:21:43;100705.06;;;20.03;40.64
4410;BME280;2218;51.408;7.208;2023-05-19T01:24:56;100703.38;;;20.02;40.29
4410;BME280;2218;51.408;7.208;2023-05-19T01:30:29;100701.69;;;20.01;40.27
4410;BME280;2218;51.408;7.208;2023-05-19T01:33:02;100695.63;;;19.99;40.14
4410;BME280;2218;51.408;7.208;2023-05-19T01:35:33;100703.53;;;19.99;40.14
4410;BME280;2218;51.408;7.208;2023-05-19T01:38:03;100697.41;;;19.98;40.28
4410;BME280;2218;51.408;7.208;2023-05-19T01:40:32;100700.91;;;19.99;40.31
4410;BME280;2218;51.408;7.208;2023-05-19T01:43:00;100694.78;;;19.98;40.35
4410;BME280;2218;51.408;7.208;2023-05-19T01:45:32;100700.91;;;19.99;40.20
4410;BME280;2218;51.408;7.208;2023-05-19T01:48:02;100699.22;;;19.98;40.00
4410;BME280;2218;51.408;7.208;2023-05-19T01:50:31;100708.91;;;19.97;39.99
4410;BME280;2218;51.408;7.208;2023-05-19T01:52:58;100698.34;;;19.97;40.01
4410;BME280;2218;51.408;7.208;2023-05-19T01:55:26;100700.16;;;19.97;40.27
4410;BME280;2218;51.408;7.208;2023-05-19T01:58:06;100701.09;;;19.96;40.10
4410;BME280;2218;51.408;7.208;2023-05-19T02:00:50;100702.78;;;19.97;40.17
4410;BME280;2218;51.408;7.208;2023-05-19T02:03:40;100707.31;;;19.95;40.19
4410;BME280;2218;51.408;7.208;2023-05-19T02:06:21;100713.50;;;19.94;40.15
4410;BME280;2218;51.408;7.208;2023-05-19T02:09:01;100717.88;;;19.95;40.46
4410;BME280;2218;51.408;7.208;2023-05-19T02:11:36;100712.59;;;19.95;40.26
4410;BME280;2218;51.408;7.208;2023-05-19T02:14:11;100717.09;;;19.93;40.24
4410;BME280;2218;51.408;7.208;2023-05-19T02:16:45;100716.25;;;19.92;40.17
4410;BME280;2218;51.408;7.208;2023-05-19T02:19:21;100717.09;;;19.93;40.34
4410;BME280;2218;51.408;7.208;2023-05-19T02:21:48;100711.81;;;19.93;40.18
4410;BME280;2218;51.408;7.208;2023-05-19T02:24:15;100714.53;;;19.91;40.26
4410;BME280;2218;51.408;7.208;2023-05-19T02:26:42;100714.53;;;19.91;40.39
4410;BME280;2218;51.408;7.208;2023-05-19T02:29:09;100718.97;;;19.91;40.28
4410;BME280;2218;51.408;7.208;2023-05-19T02:31:36;100724.25;;;19.91;40.13
4410;BME280;2218;51.408;7.208;2023-05-19T02:34:05;100708.41;;;19.91;40.40
4410;BME280;2218;51.408;7.208;2023-05-19T02:36:34;100709.38;;;19.90;40.26
4410;BME280;2218;51.408;7.208;2023-05-19T02:39:02;100710.13;;;19.92;40.28
4410;BME280;2218;51.408;7.208;2023-05-19T02:41:29;100705.69;;;19.92;40.31
4410;BME280;2218;51.408;7.208;2023-05-19T02:43:56;100695.97;;;19.93;40.18
4410;BME280;2218;51.408;7.208;2023-05-19T02:46:24;100704.75;;;19.93;40.17
4410;BME280;2218;51.408;7.208;2023-05-19T02:48:52;100711.81;;;19.93;40.39
4410;BME280;2218;51.408;7.208;2023-05-19T02:51:20;100697.69;;;19.94;40.35
4410;BME280;2218;51.408;7.208;2023-05-19T02:53:47;100695.97;;;19.93;40.07
4410;BME280;2218;51.408;7.208;2023-05-19T02:56:14;100702.09;;;19.93;40.27
4410;BME280;2218;51.408;7.208;2023-05-19T02:58:41;100697.78;;;19.92;40.28
4410;BME280;2218;51.408;7.208;2023-05-19T03:01:09;100694.28;;;19.92;40.30
4410;BME280;2218;51.408;7.208;2023-05-19T03:03:36;100695.13;;;19.92;40.24
4410;BME280;2218;51.408;7.208;2023-05-19T03:06:04;100697.78;;;19.92;40.31
4410;BME280;2218;51.408;7.208;2023-05-19T03:08:34;100689.94;;;19.91;40.40
4410;BME280;2218;51.408;7.208;2023-05-19T03:11:02;100693.44;;;19.91;40.21
4410;BME280;2218;51.408;7.208;2023-05-19T03:13:29;100690.81;;;19.91;40.34
4410;BME280;2218;51.408;7.208;2023-05-19T03:15:56;100693.44;;;19.91;40.46
4410;BME280;2218;51.408;7.208;2023-05-19T03:18:25;100692.59;;;19.91;40.29
4410;BME280;2218;51.408;7.208;2023-05-19T03:20:52;100696.16;;;19.90;40.38
4410;BME280;2218;51.408;7.208;2023-05-19T03:23:20;100699.66;;;19.90;40.31
4410;BME280;2218;51.408;7.208;2023-05-19T03:25:48;100700.50;;;19.91;40.41
4410;BME280;2218;51.408;7.208;2023-05-19T03:28:15;100696.16;;;19.90;40.33
4410;BME280;2218;51.408;7.208;2023-05-19T03:30:42;100706.72;;;19.90;40.26
4410;BME280;2218;51.408;7.208;2023-05-19T03:33:13;100708.41;;;19.91;40.31
4410;BME280;2218;51.408;7.208;2023-05-19T03:35:41;100714.63;;;19.90;40.40
4410;BME280;2218;51.408;7.208;2023-05-19T03:38:09;100711.16;;;19.89;40.33
4410;BME280;2218;51.408;7.208;2023-05-19T03:40:37;100706.72;;;19.90;40.22
4410;BME280;2218;51.408;7.208;2023-05-19T03:43:10;100700.59;;;19.89;40.29
4410;BME280;2218;51.408;7.208;2023-05-19T03:45:44;100704.09;;;19.90;40.37
4410;BME280;2218;51.408;7.208;2023-05-19T03:48:37;100706.72;;;19.90;40.26
4410;BME280;2218;51.408;7.208;2023-05-19T03:51:28;100697.09;;;19.88;40.36
4410;BME280;2218;51.408;7.208;2023-05-19T03:54:01;100699.72;;;19.88;40.30
4410;BME280;2218;51.408;7.208;2023-05-19T03:56:29;100699.72;;;19.88;40.43
4410;BME280;2218;51.408;7.208;2023-05-19T03:58:58;100698.81;;;19.90;40.29
4410;BME280;2218;51.408;7.208;2023-05-19T04:01:25;100715.50;;;19.90;40.28
4410;BME280;2218;51.408;7.208;2023-05-19T04:03:52;100712.84;;;19.90;40.25
4410;BME280;2218;51.408;7.208;2023-05-19T04:06:19;100704.94;;;19.90;40.16
4410;BME280;2218;51.408;7.208;2023-05-19T04:08:46;100714.53;;;19.91;40.28
4410;BME280;2218;51.408;7.208;2023-05-19T04:11:13;100712.75;;;19.92;40.20
4410;BME280;2218;51.408;7.208;2023-05-19T04:13:40;100717.94;;;19.93;39.99
4410;BME280;2218;51.408;7.208;2023-05-19T04:16:08;100716.06;;;19.95;39.81
4410;BME280;2218;51.408;7.208;2023-05-19T04:18:35;100709.75;;;19.98;39.91
4410;BME280;2218;51.408;7.208;2023-05-19T04:21:03;100719.31;;;20.00;39.82
4410;BME280;2218;51.408;7.208;2023-05-19T04:23:33;100720.16;;;20.01;39.73
4410;BME280;2218;51.408;7.208;2023-05-19T04:26:00;100718.25;;;20.03;39.62
4410;BME280;2218;51.408;7.208;2023-05-19T04:28:28;100715.56;;;20.04;39.59
4410;BME280;2218;51.408;7.208;2023-05-19T04:30:55;100715.56;;;20.04;39.61
4410;BME280;2218;51.408;7.208;2023-05-19T04:33:25;100704.06;;;20.05;39.64
4410;BME280;2218;51.408;7.208;2023-05-19T04:35:54;100713.56;;;20.08;39.64
4410;BME280;2218;51.408;7.208;2023-05-19T04:38:22;100710.94;;;20.08;39.60
4410;BME280;2218;51.408;7.208;2023-05-19T04:40:49;100712.66;;;20.09;39.56
4410;BME280;2218;51.408;7.208;2023-05-19T04:43:16;100712.56;;;20.10;39.67
4410;BME280;2218;51.408;7.208;2023-05-19T04:45:44;100713.41;;;20.11;39.42
4410;BME280;2218;51.408;7.208;2023-05-19T04:48:12;100722.19;;;20.11;39.51
4410;BME280;2218;51.408;7.208;2023-05-19T04:50:41;100720.28;;;20.13;39.08
4410;BME280;2218;51.408;7.208;2023-05-19T04:53:08;100725.56;;;20.13;39.52
4410;BME280;2218;51.408;7.208;2023-05-19T04:55:36;100721.16;;;20.14;39.33
4410;BME280;2218;51.408;7.208;2023-05-19T04:58:04;100728.16;;;20.15;39.65
4410;BME280;2218;51.408;7.208;2023-05-19T05:00:32;100723.72;;;20.16;39.59
4410;BME280;2218;51.408;7.208;2023-05-19T05:03:03;100729.84;;;20.16;39.50
4410;BME280;2218;51.408;7.208;2023-05-19T05:05:32;100731.44;;;20.19;39.34
4410;BME280;2218;51.408;7.208;2023-05-19T05:08:00;100734.59;;;20.25;39.21
4410;BME280;2218;51.408;7.208;2023-05-19T05:10:32;100726.31;;;20.31;39.13
4410;BME280;2218;51.408;7.208;2023-05-19T05:13:00;100729.44;;;20.38;39.26
4410;BME280;2218;51.408;7.208;2023-05-19T05:15:28;100728.25;;;20.44;38.99
4410;BME280;2218;51.408;7.208;2023-05-19T05:17:58;100730.56;;;20.50;39.08
4410;BME280;2218;51.408;7.208;2023-05-19T05:20:26;100730.38;;;20.53;38.77
4410;BME280;2218;51.408;7.208;2023-05-19T05:22:54;100730.97;;;20.58;38.46
4410;BME280;2218;51.408;7.208;2023-05-19T05:25:24;100728.91;;;20.63;38.72
4410;BME280;2218;51.408;7.208;2023-05-19T05:27:51;100733.91;;;20.68;38.59
4410;BME280;2218;51.408;7.208;2023-05-19T05:30:18;100733.66;;;20.72;38.65
4410;BME280;2218;51.408;7.208;2023-05-19T05:32:46;100734.31;;;20.76;38.48
4410;BME280;2218;51.408;7.208;2023-05-19T05:35:27;100731.41;;;20.80;38.50
4410;BME280;2218;51.408;7.208;2023-05-19T05:37:54;100727.66;;;20.84;38.34
4410;BME280;2218;51.408;7.208;2023-05-19T05:40:23;100728.41;;;20.86;38.60
4410;BME280;2218;51.408;7.208;2023-05-19T05:42:50;100722.00;;;20.90;38.51
4410;BME280;2218;51.408;7.208;2023-05-19T05:45:21;100725.09;;;20.97;38.51
4410;BME280;2218;51.408;7.208;2023-05-19T05:47:49;100717.84;;;21.01;38.38
4410;BME280;2218;51.408;7.208;2023-05-19T05:50:17;100718.41;;;21.06;38.37
4410;BME280;2218;51.408;7.208;2023-05-19T05:52:46;100718.31;;;21.07;38.33
4410;BME280;2218;51.408;7.208;2023-05-19T05:55:16;100711.06;;;21.11;38.64
4410;BME280;2218;51.408;7.208;2023-05-19T05:57:45;100706.50;;;21.13;38.62
4410;BME280;2218;51.408;7.208;2023-05-19T06:00:15;100703.69;;;21.16;38.56
4410;BME280;2218;51.408;7.208;2023-05-19T06:02:48;100708.81;;;21.19;38.71
4410;BME280;2218;51.408;7.208;2023-05-19T06:05:17;100709.53;;;21.21;38.46
4410;BME280;2218;51.408;7.208;2023-05-19T06:07:45;100714.66;;;21.24;38.67
4410;BME280;2218;51.408;7.208;2023-05-19T06:10:18;100716.13;;;21.28;38.53
4410;BME280;2218;51.408;7.208;2023-05-19T06:12:48;100710.78;;;21.30;38.63
4410;BME280;2218;51.408;7.208;2023-05-19T06:15:15;100712.41;;;21.32;38.56
4410;BME280;2218;51.408;7.208;2023-05-19T06:18:05;100705.25;;;21.34;38.73
4410;BME280;2218;51.408;7.208;2023-05-19T06:20:32;100708.63;;;21.36;38.30
4410;BME280;2218;51.408;7.208;2023-05-19T06:22:59;100702.38;;;21.37;38.57
4410;BME280;2218;51.408;7.208;2023-05-19T06:25:27;100715.59;;;21.37;38.30
4410;BME280;2218;51.408;7.208;2023-05-19T06:27:57;100703.16;;;21.39;38.21
4410;BME280;2218;51.408;7.208;2023-05-19T06:30:24;100707.50;;;21.40;38.21
4410;BME280;2218;51.408;7.208;2023-05-19T06:33:11;100697.75;;;21.41;38.63
4410;BME280;2218;51.408;7.208;2023-05-19T06:35:38;100697.66;;;21.42;38.31
4410;BME280;2218;51.408;7.208;2023-05-19T06:38:06;100693.22;;;21.43;38.41
4410;BME280;2218;51.408;7.208;2023-05-19T06:40:33;100699.38;;;21.44;38.34
4410;BME280;2218;51.408;7.208;2023-05-19T06:43:02;100694.09;;;21.44;38.21
4410;BME280;2218;51.408;7.208;2023-05-19T06:45:50;100700.22;;;21.44;38.46
4410;BME280;2218;51.408;7.208;2023-05-19T06:48:17;100695.78;;;21.45;38.61
4410;BME280;2218;51.408;7.208;2023-05-19T06:50:44;100701.16;;;21.43;38.49
4410;BME280;2218;51.408;7.208;2023-05-19T06:53:12;100693.13;;;21.45;38.68
4410;BME280;2218;51.408;7.208;2023-05-19T06:55:39;100698.44;;;21.45;38.48
4410;BME280;2218;51.408;7.208;2023-05-19T06:58:08;100694.94;;;21.44;38.82
4410;BME280;2218;51.408;7.208;2023-05-19T07:00:35;100699.28;;;21.45;38.74
4410;BME280;2218;51.408;7.208;2023-05-19T07:03:04;100696.63;;;21.45;38.41
4410;BME280;2218;51.408;7.208;2023-05-19T07:05:31;100694.09;;;21.44;38.67
4410;BME280;2218;51.408;7.208;2023-05-19T07:08:00;100702.03;;;21.44;38.67
4410;BME280;2218;51.408;7.208;2023-05-19T07:10:28;100695.84;;;21.43;38.61
4410;BME280;2218;51.408;7.208;2023-05-19T07:12:55;100697.66;;;21.42;38.69
4410;BME280;2218;51.408;7.208;2023-05-19T07:15:26;100699.38;;;21.44;38.73
4410;BME280;2218;51.408;7.208;2023-05-19T07:17:53;100693.31;;;21.41;38.82
4410;BME280;2218;51.408;7.208;2023-05-19T07:20:20;100688.97;;;21.40;38.50
4410;BME280;2218;51.408;7.208;2023-05-19T07:22:48;100688.97;;;21.40;38.29
4410;BME280;2218;51.408;7.208;2023-05-19T07:25:15;100688.13;;;21.40;38.52
4410;BME280;2218;51.408;7.208;2023-05-19T07:27:45;100689.81;;;21.41;38.43
4410;BME280;2218;51.408;7.208;2023-05-19T07:30:12;100688.97;;;21.40;38.61
4410;BME280;2218;51.408;7.208;2023-05-19T07:32:41;100690.88;;;21.38;38.45
4410;BME280;2218;51.408;7.208;2023-05-19T07:35:08;100685.66;;;21.37;38.17
4410;BME280;2218;51.408;7.208;2023-05-19T07:37:35;100690.88;;;21.38;38.67
4410;BME280;2218;51.408;7.208;2023-05-19T07:40:02;100687.47;;;21.36;38.61
4410;BME280;2218;51.408;7.208;2023-05-19T07:42:29;100686.63;;;21.36;38.64
4410;BME280;2218;51.408;7.208;2023-05-19T07:44:56;100691.06;;;21.35;38.39
4410;BME280;2218;51.408;7.208;2023-05-19T07:47:23;100686.63;;;21.36;38.56
4410;BME280;2218;51.408;7.208;2023-05-19T07:49:51;100685.78;;;21.35;38.65
4410;BME280;2218;51.408;7.208;2023-05-19T07:52:18;100691.06;;;21.35;38.23
4410;BME280;2218;51.408;7.208;2023-05-19T07:54:45;100684.94;;;21.35;38.21
4410;BME280;2218;51.408;7.208;2023-05-19T07:57:12;100681.50;;;21.33;38.20
4410;BME280;2218;51.408;7.208;2023-05-19T07:59:40;100675.38;;;21.32;38.50
4410;BME280;2218;51.408;7.208;2023-05-19T08:02:07;100674.53;;;21.32;38.35
4410;BME280;2218;51.408;7.208;2023-05-19T08:04:34;100673.69;;;21.31;38.57
4410;BME280;2218;51.408;7.208;2023-05-19T08:07:02;100670.19;;;21.31;38.82
4410;BME280;2218;51.408;7.208;2023-05-19T08:09:29;100670.28;;;21.29;38.03
4410;BME280;2218;51.408;7.208;2023-05-19T08:11:56;100670.28;;;21.29;38.39
4410;BME280;2218;51.408;7.208;2023-05-19T08:14:23;100664.13;;;21.29;38.27
4410;BME280;2218;51.408;7.208;2023-05-19T08:16:51;100665.91;;;21.28;37.97
4410;BME280;2218;51.408;7.208;2023-05-19T08:19:18;100669.50;;;21.27;37.98
4410;BME280;2218;51.408;7.208;2023-05-19T08:21:45;100667.81;;;21.26;38.25
4410;BME280;2218;51.408;7.208;2023-05-19T08:24:14;100668.75;;;21.25;38.48
4410;BME280;2218;51.408;7.208;2023-05-19T08:26:43;100661.78;;;21.24;38.57
4410;BME280;2218;51.408;7.208;2023-05-19T08:29:10;100658.34;;;21.22;38.60
4410;BME280;2218;51.408;7.208;2023-05-19T08:31:37;100652.22;;;21.22;38.36
4410;BME280;2218;51.408;7.208;2023-05-19T08:34:04;100653.19;;;21.21;38.44
4410;BME280;2218;51.408;7.208;2023-05-19T08:36:31;100654.03;;;21.21;38.62
4410;BME280;2218;51.408;7.208;2023-05-19T08:38:58;100657.63;;;21.20;38.67
4410;BME280;2218;51.408;7.208;2023-05-19T08:41:26;100654.97;;;21.20;39.13
4410;BME280;2218;51.408;7.208;2023-05-19T08:43:53;100654.97;;;21.20;38.32
4410;BME280;2218;51.408;7.208;2023-05-19T08:46:23;100641.88;;;21.19;38.36
4410;BME280;2218;51.408;7.208;2023-05-19T08:48:55;100650.66;;;21.19;38.50
4410;BME280;2218;51.408;7.208;2023-05-19T08:51:34;100641.94;;;21.17;38.76
4410;BME280;2218;51.408;7.208;2023-05-19T08:54:13;100637.59;;;21.16;38.32
4410;BME280;2218;51.408;7.208;2023-05-19T08:56:43;100641.09;;;21.16;38.34
4410;BME280;2218;51.408;7.208;2023-05-19T08:59:13;100637.59;;;21.16;38.76
4410;BME280;2218;51.408;7.208;2023-05-19T09:01:43;100637.59;;;21.16;38.48
4410;BME280;2218;51.408;7.208;2023-05-19T09:04:11;100626.19;;;21.15;38.84
4410;BME280;2218;51.408;7.208;2023-05-19T09:06:38;100632.41;;;21.14;38.68
4410;BME280;2218;51.408;7.208;2023-05-19T09:09:07;100624.50;;;21.14;38.77
4410;BME280;2218;51.408;7.208;2023-05-19T09:11:34;100631.47;;;21.15;38.82
4410;BME280;2218;51.408;7.208;2023-05-19T09:14:04;100624.50;;;21.14;38.77
4410;BME280;2218;51.408;7.208;2023-05-19T09:16:31;100616.56;;;21.14;38.93
4410;BME280;2218;51.408;7.208;2023-05-19T09:18:58;100620.22;;;21.12;39.23
4410;BME280;2218;51.408;7.208;2023-05-19T09:21:27;100620.34;;;21.10;39.08
4410;BME280;2218;51.408;7.208;2023-05-19T09:23:56;100621.19;;;21.11;39.06
4410;BME280;2218;51.408;7.208;2023-05-19T09:26:23;100617.69;;;21.10;39.03
4410;BME280;2218;51.408;7.208;2023-05-19T09:28:50;100611.56;;;21.10;38.92
4410;BME280;2218;51.408;7.208;2023-05-19T09:31:19;100614.19;;;21.10;39.14
4410;BME280;2218;51.408;7.208;2023-05-19T09:33:51;100613.25;;;21.11;38.89
4410;BME280;2218;51.408;7.208;2023-05-19T09:36:19;100606.28;;;21.10;39.00
4410;BME280;2218;51.408;7.208;2023-05-19T09:38:46;100610.72;;;21.09;39.37
4410;BME280;2218;51.408;7.208;2023-05-19T09:41:14;100602.84;;;21.08;38.97
4410;BME280;2218;51.408;7.208;2023-05-19T09:43:40;100602.84;;;21.08;39.15
4410;BME280;2218;51.408;7.208;2023-05-19T09:46:08;100599.31;;;21.09;39.07
4410;BME280;2218;51.408;7.208;2023-05-19T09:48:37;100607.31;;;21.07;39.22
4410;BME280;2218;51.408;7.208;2023-05-19T09:51:06;100603.81;;;21.07;39.43
4410;BME280;2218;51.408;7.208;2023-05-19T09:53:35;100591.44;;;21.07;39.23
4410;BME280;2218;51.408;7.208;2023-05-19T09:56:04;100594.19;;;21.06;38.92
4410;BME280;2218;51.408;7.208;2023-05-19T09:58:32;100589.84;;;21.05;39.45
4410;BME280;2218;51.408;7.208;2023-05-19T10:01:02;100585.41;;;21.05;39.36
4410;BME280;2218;51.408;7.208;2023-05-19T10:03:30;100590.81;;;21.04;39.32
4410;BME280;2218;51.408;7.208;2023-05-19T10:06:00;100585.53;;;21.04;39.63
4410;BME280;2218;51.408;7.208;2023-05-19T10:08:27;100573.22;;;21.03;39.46
4410;BME280;2218;51.408;7.208;2023-05-19T10:10:55;100574.06;;;21.03;39.57
4410;BME280;2218;51.408;7.208;2023-05-19T10:13:24;100579.47;;;21.02;39.56
4410;BME280;2218;51.408;7.208;2023-05-19T10:15:52;100572.38;;;21.02;39.55
4410;BME280;2218;51.408;7.208;2023-05-19T10:18:22;100580.41;;;21.01;39.38
4410;BME280;2218;51.408;7.208;2023-05-19T10:20:51;100575.13;;;21.01;39.36
4410;BME280;2218;51.408;7.208;2023-05-19T10:23:20;100575.13;;;21.01;39.62
4410;BME280;2218;51.408;7.208;2023-05-19T10:25:49;100577.03;;;20.99;39.71
4410;BME280;2218;51.408;7.208;2023-05-19T10:28:20;100573.44;;;21.00;39.52
4410;BME280;2218;51.408;7.208;2023-05-19T10:30:55;100560.31;;;20.98;39.52
4410;BME280;2218;51.408;7.208;2023-05-19T10:33:35;100575.25;;;20.99;39.29
4410;BME280;2218;51.408;7.208;2023-05-19T10:36:39;100577.03;;;20.99;39.80
4410;BME280;2218;51.408;7.208;2023-05-19T10:39:19;100574.47;;;20.97;39.76
4410;BME280;2218;51.408;7.208;2023-05-19T10:42:00;100575.31;;;20.98;39.68
4410;BME280;2218;51.408;7.208;2023-05-19T10:44:48;100563.91;;;20.97;39.69
4410;BME280;2218;51.408;7.208;2023-05-19T10:47:23;100554.94;;;21.00;39.28
4410;BME280;2218;51.408;7.208;2023-05-19T10:49:52;100556.75;;;20.99;39.47
4410;BME280;2218;51.408;7.208;2023-05-19T10:52:21;100549.66;;;21.00;39.10
4410;BME280;2218;51.408;7.208;2023-05-19T10:54:51;100557.59;;;21.00;39.55
4410;BME280;2218;51.408;7.208;2023-05-19T10:57:25;100544.38;;;21.00;39.33
4410;BME280;2218;51.408;7.208;2023-05-19T10:59:55;100554.00;;;21.01;39.28
4410;BME280;2218;51.408;7.208;2023-05-19T11:02:41;100550.50;;;21.00;39.21
4410;BME280;2218;51.408;7.208;2023-05-19T11:05:10;100551.34;;;21.01;39.21
4410;BME280;2218;51.408;7.208;2023-05-19T11:07:41;100554.00;;;21.01;38.92
4410;BME280;2218;51.408;7.208;2023-05-19T11:10:11;100546.06;;;21.01;39.19
4410;BME280;2218;51.408;7.208;2023-05-19T11:12:44;100550.41;;;21.02;39.14
4410;BME280;2218;51.408;7.208;2023-05-19T11:15:13;100563.59;;;21.02;39.33
4410;BME280;2218;51.408;7.208;2023-05-19T11:17:44;100554.72;;;21.03;39.26
4410;BME280;2218;51.408;7.208;2023-05-19T11:20:22;100553.81;;;21.04;39.48
4410;BME280;2218;51.408;7.208;2023-05-19T11:23:06;100549.44;;;21.03;39.06
4410;BME280;2218;51.408;7.208;2023-05-19T11:25:50;100552.94;;;21.03;39.14
4410;BME280;2218;51.408;7.208;2023-05-19T11:28:20;100534.53;;;21.02;39.56
4410;BME280;2218;51.408;7.208;2023-05-19T11:30:52;100551.25;;;21.02;39.44
4410;BME280;2218;51.408;7.208;2023-05-19T11:33:20;100545.09;;;21.02;39.04
4410;BME280;2218;51.408;7.208;2023-05-19T11:35:53;100539.81;;;21.02;39.38
4410;BME280;2218;51.408;7.208;2023-05-19T11:38:23;100539.81;;;21.02;38.94
4410;BME280;2218;51.408;7.208;2023-05-19T11:40:54;100540.66;;;21.02;39.25
4410;BME280;2218;51.408;7.208;2023-05-19T11:43:25;100529.25;;;21.02;39.38
4410;BME280;2218;51.408;7.208;2023-05-19T11:45:53;100525.66;;;21.03;39.85
4410;BME280;2218;51.408;7.208;2023-05-19T11:48:21;100526.63;;;21.02;39.08
4410;BME280;2218;51.408;7.208;2023-05-19T11:50:49;100531.91;;;21.02;39.34
4410;BME280;2218;51.408;7.208;2023-05-19T11:53:17;100529.25;;;21.02;39.51
4410;BME280;2218;51.408;7.208;2023-05-19T11:55:46;100524.91;;;21.01;39.49
4410;BME280;2218;51.408;7.208;2023-05-19T11:58:15;100523.97;;;21.02;39.42
4410;BME280;2218;51.408;7.208;2023-05-19T12:00:43;100520.59;;;21.00;39.66
4410;BME280;2218;51.408;7.208;2023-05-19T12:03:12;100524.19;;;20.99;39.49
4410;BME280;2218;51.408;7.208;2023-05-19T12:05:42;100517.09;;;20.99;39.52
4410;BME280;2218;51.408;7.208;2023-05-19T12:08:11;100523.22;;;21.00;39.42
4410;BME280;2218;51.408;7.208;2023-05-19T12:10:39;100523.97;;;21.02;39.38
4410;BME280;2218;51.408;7.208;2023-05-19T12:13:06;100525.88;;;21.00;39.56
4410;BME280;2218;51.408;7.208;2023-05-19T12:15:35;100515.31;;;21.00;39.55
4410;BME280;2218;51.408;7.208;2023-05-19T12:18:02;100507.38;;;21.00;39.64
4410;BME280;2218;51.408;7.208;2023-05-19T12:20:31;100503.78;;;21.01;39.42
4410;BME280;2218;51.408;7.208;2023-05-19T12:23:00;100509.06;;;21.01;39.65
4410;BME280;2218;51.408;7.208;2023-05-19T12:25:28;100511.72;;;21.01;39.71
4410;BME280;2218;51.408;7.208;2023-05-19T12:27:57;100503.88;;;20.99;39.74
4410;BME280;2218;51.408;7.208;2023-05-19T12:30:26;100501.13;;;21.01;39.84
4410;BME280;2218;51.408;7.208;2023-05-19T12:32:55;100500.28;;;21.00;39.79
4410;BME280;2218;51.408;7.208;2023-05-19T12:35:26;100497.53;;;21.02;39.63
4410;BME280;2218;51.408;7.208;2023-05-19T12:37:54;100487.91;;;21.01;39.42
4410;BME280;2218;51.408;7.208;2023-05-19T12:40:21;100483.59;;;21.00;39.81
4410;BME280;2218;51.408;7.208;2023-05-19T12:42:48;100488.78;;;21.01;39.64
4410;BME280;2218;51.408;7.208;2023-05-19T12:45:20;100481.69;;;21.02;39.63
4410;BME280;2218;51.408;7.208;2023-05-19T12:47:50;100482.75;;;20.99;39.54
4410;BME280;2218;51.408;7.208;2023-05-19T12:50:19;100483.59;;;21.00;39.84
4410;BME280;2218;51.408;7.208;2023-05-19T12:52:47;100486.22;;;21.00;39.74
4410;BME280;2218;51.408;7.208;2023-05-19T12:55:16;100480.00;;;21.01;39.55
4410;BME280;2218;51.408;7.208;2023-05-19T12:57:49;100483.59;;;21.00;39.48
4410;BME280;2218;51.408;7.208;2023-05-19T13:00:21;100475.66;;;21.00;39.82
4410;BME280;2218;51.408;7.208;2023-05-19T13:02:57;100474.72;;;21.01;39.71
4410;BME280;2218;51.408;7.208;2023-05-19T13:05:26;100476.50;;;21.00;39.59
4410;BME280;2218;51.408;7.208;2023-05-19T13:07:58;100469.41;;;21.01;39.78
4410;BME280;2218;51.408;7.208;2023-05-19T13:10:28;100471.22;;;21.00;39.64
4410;BME280;2218;51.408;7.208;2023-05-19T13:12:57;100461.50;;;21.01;39.63
4410;BME280;2218;51.408;7.208;2023-05-19T13:15:26;100471.13;;;21.02;39.71
4410;BME280;2218;51.408;7.208;2023-05-19T13:17:54;100472.81;;;21.03;39.92
4410;BME280;2218;51.408;7.208;2023-05-19T13:20:21;100460.53;;;21.02;39.71
4410;BME280;2218;51.408;7.208;2023-05-19T13:22:50;100478.94;;;21.03;39.63
4410;BME280;2218;51.408;7.208;2023-05-19T13:25:17;100471.00;;;21.03;39.93
4410;BME280;2218;51.408;7.208;2023-05-19T13:27:47;100475.44;;;21.03;39.72